sensor_id;sensor_type;location;lat;lon;timestamp;P1;durP1;ratioP1;P2;durP2;ratioP2
48327;SDS011;34136;51.022;7.082;2023-05-29T00:01:12;9.23;;;3.83;;
48327;SDS011;34136;51.022;7.082;2023-05-29T00:03:58;12.90;;;3.95;;
48327;SDS011;34136;51.022;7.082;2023-05-29T00:06:44;11.00;;;3.85;;
48327;SDS011;34136;51.022;7.082;2023-05-29T00:09:31;11.43;;;3.47;;
48327;SDS011;34136;51.022;7.082;2023-05-29T00:12:17;10.25;;;3.72;;
48327;SDS011;34136;51.022;7.082;2023-05-29T00:15:03;7.90;;;3.80;;
48327;SDS011;34136;51.022;7.082;2023-05-29T00:17:50;7.82;;;3.70;;
48327;SDS011;34136;51.022;7.082;2023-05-29T00:20:36;9.98;;;3.92;;
48327;SDS011;34136;51.022;7.082;2023-05-29T00:23:23;11.48;;;4.20;;
48327;SDS011;34136;51.022;7.082;2023-05-29T00:26:09;8.77;;;3.90;;
48327;SDS011;34136;51.022;7.082;2023-05-29T00:28:57;7.45;;;4.22;;
48327;SDS011;34136;51.022;7.082;2023-05-29T00:31:43;9.45;;;3.90;;
48327;SDS011;34136;51.022;7.082;2023-05-29T00:34:29;6.82;;;3.70;;
48327;SDS011;34136;51.022;7.082;2023-05-29T00:37:15;10.02;;;3.78;;
48327;SDS011;34136;51.022;7.082;2023-05-29T00:40:01;7.72;;;3.78;;
48327;SDS011;34136;51.022;7.082;2023-05-29T00:42:49;7.30;;;4.05;;
48327;SDS011;34136;51.022;7.082;2023-05-29T00:45:35;9.13;;;3.90;;
48327;SDS011;34136;51.022;7.082;2023-05-29T00:48:21;10.98;;;3.70;;
48327;SDS011;34136;51.022;7.082;2023-05-29T00:51:08;9.57;;;3.58;;
48327;SDS011;34136;51.022;7.082;2023-05-29T00:53:55;10.38;;;3.90;;
48327;SDS011;34136;51.022;7.082;2023-05-29T00:56:43;8.50;;;3.40;;
48327;SDS011;34136;51.022;7.082;2023-05-29T00:59:30;7.95;;;3.78;;
48327;SDS011;34136;51.022;7.082;2023-05-29T01:02:18;7.13;;;3.55;;
48327;SDS011;34136;51.022;7.082;2023-05-29T01:05:06;8.13;;;3.30;;
48327;SDS011;34136;51.022;7.082;2023-05-29T01:07:52;10.00;;;4.13;;
48327;SDS011;34136;51.022;7.082;2023-05-29T01:10:38;9.07;;;3.75;;
48327;SDS011;34136;51.022;7.082;2023-05-29T01:13:26;7.40;;;3.40;;
48327;SDS011;34136;51.022;7.082;2023-05-29T01:16:19;7.57;;;3.90;;
48327;SDS011;34136;51.022;7.082;2023-05-29T01:19:29;9.45;;;3.78;;
48327;SDS011;34136;51.022;7.082;2023-05-29T01:22:58;7.10;;;3.85;;
48327;SDS011;34136;51.022;7.082;2023-05-29T01:25:58;6.80;;;3.70;;
48327;SDS011;34136;51.022;7.082;2023-05-29T01:28:51;7.93;;;4.07;;
48327;SDS011;34136;51.022;7.082;2023-05-29T01:31:42;7.45;;;3.42;;
48327;SDS011;34136;51.022;7.082;2023-05-29T01:34:29;7.97;;;3.80;;
48327;SDS011;34136;51.022;7.082;2023-05-29T01:37:16;6.35;;;3.42;;
48327;SDS011;34136;51.022;7.082;2023-05-29T01:40:02;7.05;;;3.75;;
48327;SDS011;34136;51.022;7.082;2023-05-29T01:42:49;7.60;;;3.78;;
48327;SDS011;34136;51.022;7.082;2023-05-29T01:45:36;8.63;;;3.97;;
48327;SDS011;34136;51.022;7.082;2023-05-29T01:48:22;7.07;;;3.70;;
48327;SDS011;34136;51.022;7.082;2023-05-29T01:51:10;8.23;;;3.78;;
48327;SDS011;34136;51.022;7.082;2023-05-29T01:53:57;8.25;;;3.40;;
48327;SDS011;34136;51.022;7.082;2023-05-29T01:56:46;7.57;;;3.72;;
48327;SDS011;34136;51.022;7.082;2023-05-29T01:59:33;7.97;;;3.90;;
48327;SDS011;34136;51.022;7.082;2023-05-29T02:02:22;7.70;;;3.40;;
48327;SDS011;34136;51.022;7.082;2023-05-29T02:05:09;6.20;;;3.45;;
48327;SDS011;34136;51.022;7.082;2023-05-29T02:07:56;7.35;;;3.70;;
48327;SDS011;34136;51.022;7.082;2023-05-29T02:10:42;6.75;;;3.15;;
48327;SDS011;34136;51.022;7.082;2023-05-29T02:13:28;7.93;;;4.03;;
48327;SDS011;34136;51.022;7.082;2023-05-29T02:16:14;6.68;;;3.63;;
48327;SDS011;34136;51.022;7.082;2023-05-29T02:19:01;6.45;;;3.90;;
48327;SDS011;34136;51.022;7.082;2023-05-29T02:21:47;9.23;;;4.28;;
48327;SDS011;34136;51.022;7.082;2023-05-29T02:24:34;7.40;;;3.65;;
48327;SDS011;34136;51.022;7.082;2023-05-29T02:27:20;7.57;;;3.72;;
48327;SDS011;34136;51.022;7.082;2023-05-29T02:30:06;9.05;;;3.50;;
48327;SDS011;34136;51.022;7.082;2023-05-29T02:32:53;7.50;;;3.85;;
48327;SDS011;34136;51.022;7.082;2023-05-29T02:35:40;8.77;;;4.32;;
48327;SDS011;34136;51.022;7.082;2023-05-29T02:38:26;6.57;;;3.55;;
48327;SDS011;34136;51.022;7.082;2023-05-29T02:41:13;9.50;;;3.75;;
48327;SDS011;34136;51.022;7.082;2023-05-29T02:43:59;7.38;;;3.75;;
48327;SDS011;34136;51.022;7.082;2023-05-29T02:46:46;9.13;;;3.72;;
48327;SDS011;34136;51.022;7.082;2023-05-29T02:49:32;7.93;;;3.90;;
48327;SDS011;34136;51.022;7.082;2023-05-29T02:52:18;7.80;;;3.85;;
48327;SDS011;34136;51.022;7.082;2023-05-29T02:55:05;10.38;;;4.40;;
48327;SDS011;34136;51.022;7.082;2023-05-29T02:57:51;7.35;;;4.20;;
48327;SDS011;34136;51.022;7.082;2023-05-29T03:00:38;9.63;;;4.30;;
48327;SDS011;34136;51.022;7.082;2023-05-29T03:03:25;8.40;;;3.92;;
48327;SDS011;34136;51.022;7.082;2023-05-29T03:06:11;7.15;;;3.60;;
48327;SDS011;34136;51.022;7.082;2023-05-29T03:08:59;10.23;;;4.50;;
48327;SDS011;34136;51.022;7.082;2023-05-29T03:11:45;9.90;;;4.07;;
48327;SDS011;34136;51.022;7.082;2023-05-29T03:14:32;10.75;;;4.47;;
48327;SDS011;34136;51.022;7.082;2023-05-29T03:17:18;10.30;;;4.20;;
48327;SDS011;34136;51.022;7.082;2023-05-29T03:20:05;10.52;;;4.03;;
48327;SDS011;34136;51.022;7.082;2023-05-29T03:22:52;11.70;;;4.60;;
48327;SDS011;34136;51.022;7.082;2023-05-29T03:25:39;9.02;;;4.20;;
48327;SDS011;34136;51.022;7.082;2023-05-29T03:28:25;12.10;;;4.57;;
48327;SDS011;34136;51.022;7.082;2023-05-29T03:31:12;13.48;;;5.13;;
48327;SDS011;34136;51.022;7.082;2023-05-29T03:33:59;13.52;;;5.22;;
48327;SDS011;34136;51.022;7.082;2023-05-29T03:36:58;11.65;;;5.03;;
48327;SDS011;34136;51.022;7.082;2023-05-29T03:39:46;13.70;;;5.63;;
48327;SDS011;34136;51.022;7.082;2023-05-29T03:42:33;12.10;;;5.18;;
48327;SDS011;34136;51.022;7.082;2023-05-29T03:45:20;15.48;;;5.18;;
48327;SDS011;34136;51.022;7.082;2023-05-29T03:48:07;14.93;;;5.15;;
48327;SDS011;34136;51.022;7.082;2023-05-29T03:50:53;13.68;;;5.40;;
48327;SDS011;34136;51.022;7.082;2023-05-29T03:53:46;10.38;;;4.85;;
48327;SDS011;34136;51.022;7.082;2023-05-29T03:56:32;12.68;;;5.25;;
48327;SDS011;34136;51.022;7.082;2023-05-29T03:59:18;12.80;;;5.40;;
48327;SDS011;34136;51.022;7.082;2023-05-29T04:02:06;18.27;;;5.88;;
48327;SDS011;34136;51.022;7.082;2023-05-29T04:04:54;14.48;;;5.22;;
48327;SDS011;34136;51.022;7.082;2023-05-29T04:07:41;13.52;;;5.75;;
48327;SDS011;34136;51.022;7.082;2023-05-29T04:10:27;13.50;;;5.75;;
48327;SDS011;34136;51.022;7.082;2023-05-29T04:13:14;11.60;;;4.72;;
48327;SDS011;34136;51.022;7.082;2023-05-29T04:16:00;12.75;;;5.50;;
48327;SDS011;34136;51.022;7.082;2023-05-29T04:18:46;12.90;;;5.47;;
48327;SDS011;34136;51.022;7.082;2023-05-29T04:21:33;10.75;;;5.63;;
48327;SDS011;34136;51.022;7.082;2023-05-29T04:24:19;18.45;;;6.03;;
48327;SDS011;34136;51.022;7.082;2023-05-29T04:27:06;15.80;;;6.38;;
48327;SDS011;34136;51.022;7.082;2023-05-29T04:29:53;14.55;;;5.55;;
48327;SDS011;34136;51.022;7.082;2023-05-29T04:32:39;13.68;;;6.13;;
48327;SDS011;34136;51.022;7.082;2023-05-29T04:35:26;13.82;;;5.60;;
48327;SDS011;34136;51.022;7.082;2023-05-29T04:38:16;12.80;;;6.00;;
48327;SDS011;34136;51.022;7.082;2023-05-29T04:41:04;15.57;;;5.53;;
48327;SDS011;34136;51.022;7.082;2023-05-29T04:43:50;13.13;;;5.57;;
48327;SDS011;34136;51.022;7.082;2023-05-29T04:46:38;16.98;;;5.95;;
48327;SDS011;34136;51.022;7.082;2023-05-29T04:49:24;16.00;;;5.88;;
48327;SDS011;34136;51.022;7.082;2023-05-29T04:52:10;15.57;;;5.82;;
48327;SDS011;34136;51.022;7.082;2023-05-29T04:54:57;19.08;;;6.90;;
48327;SDS011;34136;51.022;7.082;2023-05-29T04:57:42;18.60;;;6.85;;
48327;SDS011;34136;51.022;7.082;2023-05-29T05:00:29;14.35;;;6.15;;
48327;SDS011;34136;51.022;7.082;2023-05-29T05:03:16;21.40;;;6.63;;
48327;SDS011;34136;51.022;7.082;2023-05-29T05:06:02;14.65;;;6.22;;
48327;SDS011;34136;51.022;7.082;2023-05-29T05:08:51;15.23;;;6.05;;
48327;SDS011;34136;51.022;7.082;2023-05-29T05:11:37;17.67;;;6.60;;
48327;SDS011;34136;51.022;7.082;2023-05-29T05:14:25;16.88;;;6.85;;
48327;SDS011;34136;51.022;7.082;2023-05-29T05:17:11;13.82;;;6.20;;
48327;SDS011;34136;51.022;7.082;2023-05-29T05:19:58;16.50;;;6.35;;
48327;SDS011;34136;51.022;7.082;2023-05-29T05:22:44;15.77;;;6.35;;
48327;SDS011;34136;51.022;7.082;2023-05-29T05:25:31;16.52;;;6.57;;
48327;SDS011;34136;51.022;7.082;2023-05-29T05:28:19;19.45;;;6.88;;
48327;SDS011;34136;51.022;7.082;2023-05-29T05:31:05;16.77;;;6.15;;
48327;SDS011;34136;51.022;7.082;2023-05-29T05:33:52;21.00;;;6.88;;
48327;SDS011;34136;51.022;7.082;2023-05-29T05:36:38;15.13;;;5.95;;
48327;SDS011;34136;51.022;7.082;2023-05-29T05:39:30;12.25;;;6.47;;
48327;SDS011;34136;51.022;7.082;2023-05-29T05:42:16;13.88;;;6.20;;
48327;SDS011;34136;51.022;7.082;2023-05-29T05:45:14;15.00;;;5.82;;
48327;SDS011;34136;51.022;7.082;2023-05-29T05:48:01;13.82;;;5.55;;
48327;SDS011;34136;51.022;7.082;2023-05-29T05:50:47;15.07;;;5.18;;
48327;SDS011;34136;51.022;7.082;2023-05-29T05:53:34;14.38;;;5.25;;
48327;SDS011;34136;51.022;7.082;2023-05-29T05:56:20;15.00;;;5.07;;
48327;SDS011;34136;51.022;7.082;2023-05-29T05:59:07;12.55;;;5.18;;
48327;SDS011;34136;51.022;7.082;2023-05-29T06:01:53;13.88;;;5.35;;
48327;SDS011;34136;51.022;7.082;2023-05-29T06:04:40;14.90;;;4.57;;
48327;SDS011;34136;51.022;7.082;2023-05-29T06:07:28;12.75;;;4.70;;
48327;SDS011;34136;51.022;7.082;2023-05-29T06:10:14;14.57;;;4.65;;
48327;SDS011;34136;51.022;7.082;2023-05-29T06:13:00;12.88;;;4.80;;
48327;SDS011;34136;51.022;7.082;2023-05-29T06:15:56;13.55;;;5.00;;
48327;SDS011;34136;51.022;7.082;2023-05-29T06:18:44;13.63;;;4.68;;
48327;SDS011;34136;51.022;7.082;2023-05-29T06:21:31;11.85;;;4.30;;
48327;SDS011;34136;51.022;7.082;2023-05-29T06:24:18;16.40;;;4.50;;
48327;SDS011;34136;51.022;7.082;2023-05-29T06:27:04;17.65;;;4.75;;
48327;SDS011;34136;51.022;7.082;2023-05-29T06:29:50;13.23;;;4.50;;
48327;SDS011;34136;51.022;7.082;2023-05-29T06:32:37;13.05;;;4.47;;
48327;SDS011;34136;51.022;7.082;2023-05-29T06:35:25;19.35;;;5.05;;
48327;SDS011;34136;51.022;7.082;2023-05-29T06:38:12;12.98;;;4.80;;
48327;SDS011;34136;51.022;7.082;2023-05-29T06:40:59;12.70;;;3.78;;
48327;SDS011;34136;51.022;7.082;2023-05-29T06:43:45;11.02;;;4.07;;
48327;SDS011;34136;51.022;7.082;2023-05-29T06:46:32;13.82;;;4.97;;
48327;SDS011;34136;51.022;7.082;2023-05-29T06:49:20;11.18;;;3.97;;
48327;SDS011;34136;51.022;7.082;2023-05-29T06:52:07;11.98;;;4.25;;
48327;SDS011;34136;51.022;7.082;2023-05-29T06:55:12;11.85;;;3.95;;
48327;SDS011;34136;51.022;7.082;2023-05-29T06:57:58;11.38;;;4.18;;
48327;SDS011;34136;51.022;7.082;2023-05-29T07:00:46;10.70;;;4.15;;
48327;SDS011;34136;51.022;7.082;2023-05-29T07:03:45;13.30;;;4.78;;
48327;SDS011;34136;51.022;7.082;2023-05-29T07:06:33;11.20;;;4.05;;
48327;SDS011;34136;51.022;7.082;2023-05-29T07:09:19;11.45;;;4.55;;
48327;SDS011;34136;51.022;7.082;2023-05-29T07:12:07;12.57;;;4.20;;
48327;SDS011;34136;51.022;7.082;2023-05-29T07:14:54;12.20;;;3.85;;
48327;SDS011;34136;51.022;7.082;2023-05-29T07:17:40;8.65;;;4.03;;
48327;SDS011;34136;51.022;7.082;2023-05-29T07:20:47;12.70;;;4.20;;
48327;SDS011;34136;51.022;7.082;2023-05-29T07:23:36;12.70;;;4.22;;
48327;SDS011;34136;51.022;7.082;2023-05-29T07:26:22;12.70;;;4.15;;
48327;SDS011;34136;51.022;7.082;2023-05-29T07:29:09;12.27;;;4.45;;
48327;SDS011;34136;51.022;7.082;2023-05-29T07:31:55;14.30;;;4.32;;
48327;SDS011;34136;51.022;7.082;2023-05-29T07:34:42;12.80;;;4.95;;
48327;SDS011;34136;51.022;7.082;2023-05-29T07:37:28;12.18;;;4.18;;
48327;SDS011;34136;51.022;7.082;2023-05-29T07:40:15;10.07;;;4.50;;
48327;SDS011;34136;51.022;7.082;2023-05-29T07:43:24;10.38;;;4.35;;
48327;SDS011;34136;51.022;7.082;2023-05-29T07:46:15;15.75;;;4.15;;
48327;SDS011;34136;51.022;7.082;2023-05-29T07:49:02;11.85;;;4.75;;
48327;SDS011;34136;51.022;7.082;2023-05-29T07:51:48;10.88;;;4.25;;
48327;SDS011;34136;51.022;7.082;2023-05-29T07:54:34;11.98;;;4.20;;
48327;SDS011;34136;51.022;7.082;2023-05-29T07:57:22;12.05;;;4.45;;
48327;SDS011;34136;51.022;7.082;2023-05-29T08:00:10;9.90;;;3.83;;
48327;SDS011;34136;51.022;7.082;2023-05-29T08:03:04;11.63;;;3.95;;
48327;SDS011;34136;51.022;7.082;2023-05-29T08:05:51;12.18;;;4.07;;
48327;SDS011;34136;51.022;7.082;2023-05-29T08:08:39;12.02;;;4.15;;
48327;SDS011;34136;51.022;7.082;2023-05-29T08:11:25;14.93;;;3.92;;
48327;SDS011;34136;51.022;7.082;2023-05-29T08:14:13;9.65;;;4.00;;
48327;SDS011;34136;51.022;7.082;2023-05-29T08:17:04;9.85;;;4.00;;
48327;SDS011;34136;51.022;7.082;2023-05-29T08:19:50;12.80;;;4.43;;
48327;SDS011;34136;51.022;7.082;2023-05-29T08:22:37;9.05;;;3.80;;
48327;SDS011;34136;51.022;7.082;2023-05-29T08:25:23;9.68;;;4.38;;
48327;SDS011;34136;51.022;7.082;2023-05-29T08:28:10;11.00;;;4.35;;
48327;SDS011;34136;51.022;7.082;2023-05-29T08:30:56;9.98;;;3.75;;
48327;SDS011;34136;51.022;7.082;2023-05-29T08:33:43;11.75;;;4.30;;
48327;SDS011;34136;51.022;7.082;2023-05-29T08:36:29;11.10;;;4.40;;
48327;SDS011;34136;51.022;7.082;2023-05-29T08:39:15;14.98;;;4.18;;
48327;SDS011;34136;51.022;7.082;2023-05-29T08:42:07;12.70;;;3.95;;
48327;SDS011;34136;51.022;7.082;2023-05-29T08:44:58;11.45;;;4.20;;
48327;SDS011;34136;51.022;7.082;2023-05-29T08:47:51;10.52;;;3.92;;
48327;SDS011;34136;51.022;7.082;2023-05-29T08:50:43;12.05;;;4.68;;
48327;SDS011;34136;51.022;7.082;2023-05-29T08:56:20;10.40;;;3.85;;
48327;SDS011;34136;51.022;7.082;2023-05-29T08:59:12;9.90;;;3.78;;
48327;SDS011;34136;51.022;7.082;2023-05-29T09:01:58;8.63;;;3.78;;
48327;SDS011;34136;51.022;7.082;2023-05-29T09:04:45;10.43;;;3.58;;
48327;SDS011;34136;51.022;7.082;2023-05-29T09:07:31;11.93;;;3.90;;
48327;SDS011;34136;51.022;7.082;2023-05-29T09:10:17;11.95;;;3.95;;
48327;SDS011;34136;51.022;7.082;2023-05-29T09:13:05;8.93;;;3.40;;
48327;SDS011;34136;51.022;7.082;2023-05-29T09:15:55;12.50;;;4.25;;
48327;SDS011;34136;51.022;7.082;2023-05-29T09:18:43;10.48;;;4.13;;
48327;SDS011;34136;51.022;7.082;2023-05-29T09:21:30;11.20;;;3.88;;
48327;SDS011;34136;51.022;7.082;2023-05-29T09:24:16;13.05;;;4.20;;
48327;SDS011;34136;51.022;7.082;2023-05-29T09:27:02;14.38;;;4.70;;
48327;SDS011;34136;51.022;7.082;2023-05-29T09:29:49;11.50;;;3.90;;
48327;SDS011;34136;51.022;7.082;2023-05-29T09:32:36;10.20;;;3.47;;
48327;SDS011;34136;51.022;7.082;2023-05-29T09:35:22;10.80;;;3.95;;
48327;SDS011;34136;51.022;7.082;2023-05-29T09:38:09;10.20;;;3.85;;
48327;SDS011;34136;51.022;7.082;2023-05-29T09:40:57;12.57;;;4.05;;
48327;SDS011;34136;51.022;7.082;2023-05-29T09:43:49;11.45;;;4.15;;
48327;SDS011;34136;51.022;7.082;2023-05-29T09:46:35;10.68;;;3.85;;
48327;SDS011;34136;51.022;7.082;2023-05-29T09:49:22;10.43;;;4.13;;
48327;SDS011;34136;51.022;7.082;2023-05-29T09:52:10;11.02;;;3.67;;
48327;SDS011;34136;51.022;7.082;2023-05-29T09:54:58;12.75;;;4.75;;
48327;SDS011;34136;51.022;7.082;2023-05-29T09:57:46;12.48;;;4.25;;
48327;SDS011;34136;51.022;7.082;2023-05-29T10:00:33;12.25;;;3.88;;
48327;SDS011;34136;51.022;7.082;2023-05-29T10:03:20;11.93;;;4.10;;
48327;SDS011;34136;51.022;7.082;2023-05-29T10:06:07;11.43;;;4.13;;
48327;SDS011;34136;51.022;7.082;2023-05-29T10:08:55;10.88;;;4.13;;
48327;SDS011;34136;51.022;7.082;2023-05-29T10:11:43;13.35;;;4.13;;
48327;SDS011;34136;51.022;7.082;2023-05-29T10:14:31;10.82;;;4.05;;
48327;SDS011;34136;51.022;7.082;2023-05-29T10:17:18;12.70;;;4.32;;
48327;SDS011;34136;51.022;7.082;2023-05-29T10:20:11;10.35;;;3.72;;
48327;SDS011;34136;51.022;7.082;2023-05-29T10:23:02;11.43;;;4.55;;
48327;SDS011;34136;51.022;7.082;2023-05-29T10:25:53;10.32;;;3.67;;
48327;SDS011;34136;51.022;7.082;2023-05-29T10:28:46;10.63;;;3.97;;
48327;SDS011;34136;51.022;7.082;2023-05-29T10:35:16;12.25;;;4.85;;
48327;SDS011;34136;51.022;7.082;2023-05-29T10:38:10;10.25;;;3.92;;
48327;SDS011;34136;51.022;7.082;2023-05-29T10:47:25;14.13;;;4.47;;
48327;SDS011;34136;51.022;7.082;2023-05-29T10:50:12;12.05;;;4.70;;
48327;SDS011;34136;51.022;7.082;2023-05-29T10:52:58;12.57;;;4.15;;
48327;SDS011;34136;51.022;7.082;2023-05-29T10:55:45;11.13;;;4.05;;
48327;SDS011;34136;51.022;7.082;2023-05-29T10:58:31;10.68;;;3.70;;
48327;SDS011;34136;51.022;7.082;2023-05-29T11:01:17;9.93;;;4.13;;
48327;SDS011;34136;51.022;7.082;2023-05-29T11:07:01;13.07;;;4.60;;
48327;SDS011;34136;51.022;7.082;2023-05-29T11:09:47;12.23;;;4.38;;
48327;SDS011;34136;51.022;7.082;2023-05-29T11:12:33;13.05;;;4.60;;
48327;SDS011;34136;51.022;7.082;2023-05-29T11:15:19;12.00;;;4.00;;
48327;SDS011;34136;51.022;7.082;2023-05-29T11:18:05;11.40;;;3.97;;
48327;SDS011;34136;51.022;7.082;2023-05-29T11:20:53;11.93;;;4.97;;
48327;SDS011;34136;51.022;7.082;2023-05-29T11:23:45;10.38;;;3.92;;
48327;SDS011;34136;51.022;7.082;2023-05-29T11:26:33;13.90;;;4.85;;
48327;SDS011;34136;51.022;7.082;2023-05-29T11:29:31;14.25;;;4.75;;
48327;SDS011;34136;51.022;7.082;2023-05-29T11:32:18;10.55;;;4.32;;
48327;SDS011;34136;51.022;7.082;2023-05-29T11:37:54;11.07;;;4.20;;
48327;SDS011;34136;51.022;7.082;2023-05-29T11:40:41;11.15;;;4.00;;
48327;SDS011;34136;51.022;7.082;2023-05-29T11:43:27;13.88;;;4.30;;
48327;SDS011;34136;51.022;7.082;2023-05-29T11:46:17;9.38;;;4.00;;
48327;SDS011;34136;51.022;7.082;2023-05-29T11:49:04;8.32;;;4.00;;
48327;SDS011;34136;51.022;7.082;2023-05-29T11:51:50;16.33;;;4.45;;
48327;SDS011;34136;51.022;7.082;2023-05-29T11:54:36;11.80;;;4.75;;
48327;SDS011;34136;51.022;7.082;2023-05-29T11:57:22;12.35;;;4.00;;
48327;SDS011;34136;51.022;7.082;2023-05-29T12:00:19;12.27;;;4.13;;
48327;SDS011;34136;51.022;7.082;2023-05-29T12:03:06;10.98;;;3.70;;
48327;SDS011;34136;51.022;7.082;2023-05-29T12:05:52;11.07;;;4.00;;
48327;SDS011;34136;51.022;7.082;2023-05-29T12:08:38;9.10;;;3.65;;
48327;SDS011;34136;51.022;7.082;2023-05-29T12:11:25;11.90;;;4.07;;
48327;SDS011;34136;51.022;7.082;2023-05-29T12:14:11;11.95;;;4.07;;
48327;SDS011;34136;51.022;7.082;2023-05-29T12:16:58;11.35;;;4.03;;
48327;SDS011;34136;51.022;7.082;2023-05-29T12:19:45;11.32;;;3.85;;
48327;SDS011;34136;51.022;7.082;2023-05-29T12:22:38;10.63;;;3.90;;
48327;SDS011;34136;51.022;7.082;2023-05-29T12:25:25;12.02;;;4.05;;
48327;SDS011;34136;51.022;7.082;2023-05-29T12:28:16;10.73;;;4.10;;
48327;SDS011;34136;51.022;7.082;2023-05-29T12:31:02;12.45;;;4.43;;
48327;SDS011;34136;51.022;7.082;2023-05-29T12:33:48;11.77;;;3.85;;
48327;SDS011;34136;51.022;7.082;2023-05-29T12:36:35;10.10;;;3.97;;
48327;SDS011;34136;51.022;7.082;2023-05-29T12:39:21;12.20;;;3.83;;
48327;SDS011;34136;51.022;7.082;2023-05-29T12:42:08;13.48;;;4.07;;
48327;SDS011;34136;51.022;7.082;2023-05-29T12:44:56;8.50;;;3.90;;
48327;SDS011;34136;51.022;7.082;2023-05-29T12:47:51;8.65;;;3.42;;
48327;SDS011;34136;51.022;7.082;2023-05-29T12:50:45;12.68;;;3.92;;
48327;SDS011;34136;51.022;7.082;2023-05-29T12:53:35;10.88;;;3.38;;
48327;SDS011;34136;51.022;7.082;2023-05-29T12:56:22;11.25;;;4.30;;
48327;SDS011;34136;51.022;7.082;2023-05-29T12:59:09;11.07;;;3.88;;
48327;SDS011;34136;51.022;7.082;2023-05-29T13:01:56;10.63;;;4.10;;
48327;SDS011;34136;51.022;7.082;2023-05-29T13:04:42;11.48;;;4.13;;
48327;SDS011;34136;51.022;7.082;2023-05-29T13:07:29;9.98;;;4.00;;
48327;SDS011;34136;51.022;7.082;2023-05-29T13:10:15;12.90;;;4.25;;
48327;SDS011;34136;51.022;7.082;2023-05-29T13:13:02;11.52;;;3.95;;
48327;SDS011;34136;51.022;7.082;2023-05-29T13:15:48;10.30;;;3.88;;
48327;SDS011;34136;51.022;7.082;2023-05-29T13:18:34;13.30;;;3.88;;
48327;SDS011;34136;51.022;7.082;2023-05-29T13:21:20;11.07;;;3.65;;
48327;SDS011;34136;51.022;7.082;2023-05-29T13:24:06;10.10;;;3.80;;
48327;SDS011;34136;51.022;7.082;2023-05-29T13:26:53;9.23;;;3.75;;
48327;SDS011;34136;51.022;7.082;2023-05-29T13:29:43;11.05;;;3.88;;
48327;SDS011;34136;51.022;7.082;2023-05-29T13:32:30;9.63;;;3.95;;
48327;SDS011;34136;51.022;7.082;2023-05-29T13:35:16;10.77;;;3.90;;
48327;SDS011;34136;51.022;7.082;2023-05-29T13:38:02;11.38;;;3.45;;
48327;SDS011;34136;51.022;7.082;2023-05-29T13:40:49;8.63;;;3.60;;
48327;SDS011;34136;51.022;7.082;2023-05-29T13:43:35;12.32;;;3.80;;
48327;SDS011;34136;51.022;7.082;2023-05-29T13:46:22;10.80;;;3.78;;
48327;SDS011;34136;51.022;7.082;2023-05-29T13:49:09;7.57;;;3.72;;
48327;SDS011;34136;51.022;7.082;2023-05-29T13:51:56;11.07;;;3.50;;
48327;SDS011;34136;51.022;7.082;2023-05-29T13:54:42;9.93;;;3.38;;
48327;SDS011;34136;51.022;7.082;2023-05-29T13:57:28;13.77;;;3.72;;
48327;SDS011;34136;51.022;7.082;2023-05-29T14:00:15;9.10;;;3.53;;
48327;SDS011;34136;51.022;7.082;2023-05-29T14:03:02;9.57;;;3.33;;
48327;SDS011;34136;51.022;7.082;2023-05-29T14:05:48;10.75;;;3.67;;
48327;SDS011;34136;51.022;7.082;2023-05-29T14:08:34;8.00;;;3.33;;
48327;SDS011;34136;51.022;7.082;2023-05-29T14:11:20;9.00;;;3.28;;
48327;SDS011;34136;51.022;7.082;2023-05-29T14:14:07;12.65;;;3.60;;
48327;SDS011;34136;51.022;7.082;2023-05-29T14:16:54;8.82;;;3.28;;
48327;SDS011;34136;51.022;7.082;2023-05-29T14:19:40;12.52;;;3.80;;
48327;SDS011;34136;51.022;7.082;2023-05-29T14:22:27;11.13;;;4.22;;
48327;SDS011;34136;51.022;7.082;2023-05-29T14:25:13;10.10;;;3.83;;
48327;SDS011;34136;51.022;7.082;2023-05-29T14:28:01;10.02;;;3.70;;
48327;SDS011;34136;51.022;7.082;2023-05-29T14:30:51;12.30;;;3.92;;
48327;SDS011;34136;51.022;7.082;2023-05-29T14:33:37;11.25;;;3.80;;
48327;SDS011;34136;51.022;7.082;2023-05-29T14:36:25;9.15;;;3.55;;
48327;SDS011;34136;51.022;7.082;2023-05-29T14:39:12;10.93;;;3.72;;
48327;SDS011;34136;51.022;7.082;2023-05-29T14:41:59;12.27;;;4.03;;
48327;SDS011;34136;51.022;7.082;2023-05-29T14:44:49;13.98;;;4.07;;
48327;SDS011;34136;51.022;7.082;2023-05-29T14:47:35;12.55;;;4.03;;
48327;SDS011;34136;51.022;7.082;2023-05-29T14:50:22;11.52;;;4.07;;
48327;SDS011;34136;51.022;7.082;2023-05-29T14:53:08;10.75;;;4.03;;
48327;SDS011;34136;51.022;7.082;2023-05-29T14:55:55;8.00;;;2.95;;
48327;SDS011;34136;51.022;7.082;2023-05-29T14:58:40;11.30;;;4.18;;
48327;SDS011;34136;51.022;7.082;2023-05-29T15:01:26;8.55;;;3.55;;
48327;SDS011;34136;51.022;7.082;2023-05-29T15:04:13;9.13;;;3.42;;
48327;SDS011;34136;51.022;7.082;2023-05-29T15:06:59;10.30;;;4.10;;
48327;SDS011;34136;51.022;7.082;2023-05-29T15:09:47;11.13;;;4.25;;
48327;SDS011;34136;51.022;7.082;2023-05-29T15:12:34;11.02;;;3.55;;
48327;SDS011;34136;51.022;7.082;2023-05-29T15:15:24;8.45;;;3.67;;
48327;SDS011;34136;51.022;7.082;2023-05-29T15:22:09;7.95;;;3.10;;
48327;SDS011;34136;51.022;7.082;2023-05-29T15:25:30;9.07;;;3.55;;
48327;SDS011;34136;51.022;7.082;2023-05-29T15:28:19;8.35;;;3.38;;
48327;SDS011;34136;51.022;7.082;2023-05-29T15:31:09;9.88;;;3.60;;
48327;SDS011;34136;51.022;7.082;2023-05-29T15:33:56;9.30;;;4.03;;
48327;SDS011;34136;51.022;7.082;2023-05-29T15:36:44;11.98;;;3.33;;
48327;SDS011;34136;51.022;7.082;2023-05-29T15:39:32;8.05;;;3.50;;
48327;SDS011;34136;51.022;7.082;2023-05-29T15:42:19;13.93;;;3.53;;
48327;SDS011;34136;51.022;7.082;2023-05-29T15:45:27;9.38;;;3.50;;
48327;SDS011;34136;51.022;7.082;2023-05-29T15:48:29;10.05;;;3.70;;
48327;SDS011;34136;51.022;7.082;2023-05-29T15:51:16;10.52;;;3.75;;
48327;SDS011;34136;51.022;7.082;2023-05-29T15:54:02;10.45;;;4.25;;
48327;SDS011;34136;51.022;7.082;2023-05-29T15:56:48;8.00;;;3.15;;
48327;SDS011;34136;51.022;7.082;2023-05-29T15:59:34;8.10;;;3.20;;
48327;SDS011;34136;51.022;7.082;2023-05-29T16:02:21;10.85;;;3.97;;
48327;SDS011;34136;51.022;7.082;2023-05-29T16:05:07;6.88;;;3.63;;
48327;SDS011;34136;51.022;7.082;2023-05-29T16:07:54;7.43;;;3.00;;
48327;SDS011;34136;51.022;7.082;2023-05-29T16:10:40;9.35;;;3.42;;
48327;SDS011;34136;51.022;7.082;2023-05-29T16:13:27;9.98;;;3.58;;
48327;SDS011;34136;51.022;7.082;2023-05-29T16:16:13;8.88;;;3.70;;
48327;SDS011;34136;51.022;7.082;2023-05-29T16:19:00;9.20;;;3.85;;
48327;SDS011;34136;51.022;7.082;2023-05-29T16:21:46;8.05;;;3.30;;
48327;SDS011;34136;51.022;7.082;2023-05-29T16:24:32;10.52;;;3.10;;
48327;SDS011;34136;51.022;7.082;2023-05-29T16:27:19;7.40;;;3.45;;
48327;SDS011;34136;51.022;7.082;2023-05-29T16:30:05;9.93;;;3.10;;
48327;SDS011;34136;51.022;7.082;2023-05-29T16:32:52;9.35;;;3.15;;
48327;SDS011;34136;51.022;7.082;2023-05-29T16:35:39;10.30;;;3.40;;
48327;SDS011;34136;51.022;7.082;2023-05-29T16:38:25;7.97;;;2.95;;
48327;SDS011;34136;51.022;7.082;2023-05-29T16:41:11;8.50;;;3.65;;
48327;SDS011;34136;51.022;7.082;2023-05-29T16:43:57;11.43;;;3.55;;
48327;SDS011;34136;51.022;7.082;2023-05-29T16:46:43;11.27;;;3.63;;
48327;SDS011;34136;51.022;7.082;2023-05-29T16:49:29;8.43;;;3.58;;
48327;SDS011;34136;51.022;7.082;2023-05-29T16:52:15;8.43;;;3.33;;
48327;SDS011;34136;51.022;7.082;2023-05-29T16:55:02;8.98;;;3.35;;
48327;SDS011;34136;51.022;7.082;2023-05-29T16:57:48;8.82;;;3.55;;
48327;SDS011;34136;51.022;7.082;2023-05-29T17:00:34;8.38;;;3.80;;
48327;SDS011;34136;51.022;7.082;2023-05-29T17:03:21;8.32;;;3.60;;